Time;durP1;ratioP1;P1;durP2;ratioP2;P2;SDS_P1;SDS_P2;PMS_P1;PMS_P2;Temp;Humidity;BMP_temperature;BMP_pressure;BME280_temperature;BME280_humidity;BME280_pressure;Samples;Min_cycle;Max_cycle;Signal;HPM_P1;HPM_P2
2021/12/16 00:09:06;;;;;;;22.50;12.80;;;7.50;99.90;;;;;;4960439;29;20609;-94
2021/12/16 00:31:05;;;;;;;26.57;14.80;;;7.60;99.90;;;;;;4958571;29;20224;-93
2021/12/16 00:33:33;;;;;;;22.90;14.97;;;7.70;99.90;;;;;;4957907;29;20197;-95
2021/12/16 00:36:00;;;;;;;28.53;15.87;;;7.70;99.90;;;;;;4941435;29;20244;-94
2021/12/16 00:38:26;;;;;;;24.50;15.80;;;7.70;99.90;;;;;;4941450;29;20634;-93
2021/12/16 00:40:53;;;;;;;22.43;14.90;;;7.70;99.90;;;;;;4958232;29;20252;-94
2021/12/16 00:43:30;;;;;;;25.87;14.57;;;7.70;99.90;;;;;;4941038;29;20616;-94
2021/12/16 00:46:12;;;;;;;26.33;15.07;;;7.80;99.90;;;;;;4941251;29;20178;-93
2021/12/16 00:54:11;;;;;;;25.97;15.40;;;7.70;99.90;;;;;;4958335;29;20191;-94
2021/12/16 00:56:55;;;;;;;24.97;15.47;;;7.70;99.90;;;;;;4941386;29;20190;-94
2021/12/16 00:59:24;;;;;;;23.40;15.33;;;7.70;99.90;;;;;;4941287;29;20181;-94
2021/12/16 01:01:59;;;;;;;26.33;15.90;;;7.70;99.90;;;;;;4941058;29;20169;-95
2021/12/16 01:35:04;;;;;;;27.97;16.70;;;7.50;99.90;;;;;;4957369;29;20300;-94
2021/12/16 01:41:15;;;;;;;30.23;17.17;;;7.40;99.90;;;;;;4957127;29;20161;-93
2021/12/16 01:50:58;;;;;;;28.97;17.27;;;7.30;99.90;;;;;;4957290;29;20197;-94
2021/12/16 01:53:53;;;;;;;29.97;17.43;;;7.20;99.90;;;;;;4940334;29;20604;-94
2021/12/16 01:58:41;;;;;;;29.63;17.57;;;7.30;99.90;;;;;;4957410;29;20231;-94
2021/12/16 02:03:50;;;;;;;29.37;17.80;;;7.30;99.90;;;;;;4956741;29;20232;-94
2021/12/16 02:08:47;;;;;;;30.33;17.43;;;7.30;99.90;;;;;;4956879;29;20264;-95
2021/12/16 02:32:50;;;;;;;30.70;19.33;;;7.30;99.90;;;;;;4957168;29;20197;-93
2021/12/16 02:35:30;;;;;;;34.90;19.80;;;7.40;99.90;;;;;;4939220;29;20597;-94
2021/12/16 02:37:58;;;;;;;35.00;19.77;;;7.40;99.90;;;;;;4939967;29;20186;-94
2021/12/16 02:40:25;;;;;;;35.60;20.17;;;7.30;99.90;;;;;;4939651;29;20189;-94
2021/12/16 02:42:57;;;;;;;34.60;19.90;;;7.30;99.90;;;;;;4940183;29;20604;-93
2021/12/16 02:50:57;;;;;;;36.77;21.53;;;7.30;99.90;;;;;;4958656;28;20615;-95
2021/12/16 02:53:22;;;;;;;40.83;21.63;;;7.30;99.90;;;;;;4943055;29;20509;-94
2021/12/16 02:55:48;;;;;;;37.40;21.47;;;7.30;99.90;;;;;;4942853;29;20213;-94
2021/12/16 02:58:15;;;;;;;39.73;21.23;;;7.30;99.90;;;;;;4943002;29;20189;-94
2021/12/16 03:00:51;;;;;;;36.37;20.47;;;7.30;99.90;;;;;;4943687;29;20223;-94
2021/12/16 03:03:18;;;;;;;40.97;22.00;;;7.30;99.90;;;;;;4942919;29;20271;-94
2021/12/16 03:05:44;;;;;;;38.23;22.17;;;7.30;99.90;;;;;;4942550;29;20188;-94
2021/12/16 03:08:10;;;;;;;39.47;21.93;;;7.40;99.90;;;;;;4943335;29;20189;-93
2021/12/16 03:13:36;;;;;;;39.83;22.57;;;7.30;99.90;;;;;;4960185;29;20264;-94
2021/12/16 03:16:13;;;;;;;38.87;21.63;;;7.30;99.90;;;;;;4942763;29;20200;-94
2021/12/16 03:18:48;;;;;;;38.73;22.10;;;7.30;99.90;;;;;;4942335;29;20251;-94
2021/12/16 03:21:32;;;;;;;40.43;22.07;;;7.30;99.90;;;;;;4943247;29;20508;-95
2021/12/16 03:24:17;;;;;;;34.43;20.97;;;7.40;99.90;;;;;;4942551;29;20184;-94
2021/12/16 03:35:24;;;;;;;38.23;23.63;;;7.40;99.90;;;;;;4940392;29;20230;-94
2021/12/16 03:37:22;;;;;;;40.40;22.73;;;7.40;99.90;;;;;;4934775;29;20284;-94
2021/12/16 03:39:54;;;;;;;39.67;22.87;;;7.30;99.90;;;;;;4923754;29;20182;-94
2021/12/16 03:42:32;;;;;;;42.60;25.07;;;7.30;99.90;;;;;;4923607;29;20237;-94
2021/12/16 03:46:25;;;;;;;43.03;23.50;;;7.30;99.90;;;;;;4923765;29;20520;-93
2021/12/16 03:47:56;;;;;;;44.20;24.90;;;7.30;99.90;;;;;;4939922;29;20182;-94
2021/12/16 03:50:22;;;;;;;45.03;23.77;;;7.30;99.90;;;;;;4923130;29;20184;-94
2021/12/16 03:52:49;;;;;;;41.80;23.50;;;7.30;99.90;;;;;;4923371;29;20676;-94
2021/12/16 03:55:16;;;;;;;41.30;23.57;;;7.30;99.90;;;;;;4922881;29;20188;-94
2021/12/16 03:57:42;;;;;;;39.67;24.27;;;7.30;99.90;;;;;;4934852;29;20272;-94
2021/12/16 04:00:17;;;;;;;42.10;24.93;;;7.30;99.90;;;;;;4942325;29;20732;-94
2021/12/16 04:02:43;;;;;;;44.50;23.70;;;7.30;99.90;;;;;;4941885;29;20173;-95
2021/12/16 04:05:11;;;;;;;42.63;24.80;;;7.30;99.90;;;;;;4941982;29;20601;-94
2021/12/16 04:07:38;;;;;;;42.60;24.27;;;7.30;99.90;;;;;;4941689;29;20177;-94
2021/12/16 04:10:08;;;;;;;41.20;23.73;;;7.30;99.90;;;;;;4941612;29;20676;-94
2021/12/16 04:12:34;;;;;;;43.20;23.17;;;7.40;99.90;;;;;;4942216;29;20220;-94
2021/12/16 04:15:04;;;;;;;44.07;23.97;;;7.40;99.90;;;;;;4942026;29;20268;-94
2021/12/16 04:17:33;;;;;;;39.40;24.00;;;7.40;99.90;;;;;;4941381;29;20177;-94
2021/12/16 04:20:01;;;;;;;42.77;23.50;;;7.40;99.90;;;;;;4940303;29;20308;-94
2021/12/16 04:22:35;;;;;;;38.33;22.33;;;7.40;99.90;;;;;;4941522;29;20267;-94
2021/12/16 04:25:06;;;;;;;44.30;23.37;;;7.40;99.90;;;;;;4941686;29;20183;-94
2021/12/16 04:27:34;;;;;;;41.07;23.43;;;7.40;99.90;;;;;;4941461;29;20184;-94
2021/12/16 04:30:00;;;;;;;41.87;24.00;;;7.40;99.90;;;;;;4941255;29;20205;-94
2021/12/16 04:32:26;;;;;;;40.93;23.23;;;7.50;99.90;;;;;;4937729;29;20257;-94
2021/12/16 04:34:51;;;;;;;38.73;23.60;;;7.50;99.90;;;;;;4922974;29;20178;-93
2021/12/16 04:37:18;;;;;;;41.73;23.60;;;7.50;99.90;;;;;;4922430;29;20503;-94
2021/12/16 04:39:45;;;;;;;39.90;24.20;;;7.50;99.90;;;;;;4922255;29;20264;-94
2021/12/16 04:42:15;;;;;;;36.70;22.73;;;7.50;99.90;;;;;;4923020;29;20182;-94
2021/12/16 04:44:41;;;;;;;39.30;23.40;;;7.60;99.90;;;;;;4922692;29;20186;-93
2021/12/16 04:47:08;;;;;;;41.40;22.90;;;7.60;99.90;;;;;;4922048;29;20185;-94
2021/12/16 04:49:35;;;;;;;43.60;22.93;;;7.60;99.90;;;;;;4922007;29;20220;-94
2021/12/16 04:52:06;;;;;;;40.10;23.43;;;7.60;99.90;;;;;;4922273;29;20695;-94
2021/12/16 04:54:31;;;;;;;40.70;23.10;;;7.60;99.90;;;;;;4921983;29;20188;-94
2021/12/16 04:56:59;;;;;;;38.47;23.13;;;7.60;99.90;;;;;;4925155;29;20268;-94
2021/12/16 04:59:26;;;;;;;37.63;23.30;;;7.60;99.90;;;;;;4940710;29;20189;-95
2021/12/16 05:01:55;;;;;;;44.17;24.53;;;7.70;99.90;;;;;;4940338;29;20180;-94
2021/12/16 05:04:21;;;;;;;44.80;23.90;;;7.70;99.90;;;;;;4941055;29;20181;-93
2021/12/16 05:06:47;;;;;;;46.57;24.17;;;7.70;99.90;;;;;;4940556;29;20181;-94
2021/12/16 05:09:26;;;;;;;40.13;24.03;;;7.70;99.90;;;;;;4941102;29;20177;-94
2021/12/16 05:11:52;;;;;;;44.07;23.97;;;7.70;99.90;;;;;;4940560;29;20220;-94
2021/12/16 05:14:20;;;;;;;41.77;24.17;;;7.70;99.90;;;;;;4940335;29;20184;-94
2021/12/16 05:16:46;;;;;;;45.50;24.43;;;7.70;99.90;;;;;;4940426;29;20181;-94
2021/12/16 05:19:12;;;;;;;42.77;23.93;;;7.70;99.90;;;;;;4940625;29;20562;-94
2021/12/16 05:24:25;;;;;;;42.67;24.13;;;7.70;99.90;;;;;;4957943;29;20169;-94
2021/12/16 05:26:59;;;;;;;45.03;24.77;;;7.70;99.90;;;;;;4940580;29;20177;-94
2021/12/16 05:29:25;;;;;;;43.63;25.37;;;7.70;99.90;;;;;;4940891;29;20274;-93
2021/12/16 05:31:53;;;;;;;41.90;24.07;;;7.70;99.90;;;;;;4940309;29;20264;-95
2021/12/16 05:34:19;;;;;;;42.40;25.43;;;7.80;99.90;;;;;;4940684;29;20173;-94
2021/12/16 05:36:45;;;;;;;47.53;24.57;;;7.70;99.90;;;;;;4940337;29;20244;-94
2021/12/16 05:39:13;;;;;;;44.83;25.03;;;7.70;99.90;;;;;;4940462;29;20528;-93
2021/12/16 05:41:39;;;;;;;46.57;24.80;;;7.70;99.90;;;;;;4940405;29;20659;-94
2021/12/16 05:44:05;;;;;;;40.20;24.47;;;7.70;99.90;;;;;;4940671;29;20189;-94
2021/12/16 05:46:30;;;;;;;54.47;26.60;;;7.80;99.90;;;;;;4939887;29;20196;-94
2021/12/16 05:48:58;;;;;;;48.10;25.20;;;7.70;99.90;;;;;;4937471;29;20182;-93
2021/12/16 05:51:28;;;;;;;53.43;25.37;;;7.70;99.90;;;;;;4922519;29;20205;-93
2021/12/16 05:53:55;;;;;;;43.37;24.77;;;7.80;99.90;;;;;;4921348;29;20197;-94
2021/12/16 05:56:21;;;;;;;52.13;26.80;;;7.70;99.90;;;;;;4921472;29;20186;-94
2021/12/16 05:58:48;;;;;;;48.63;27.60;;;7.70;99.90;;;;;;4938730;29;20195;-94
2021/12/16 06:01:18;;;;;;;55.27;27.93;;;7.70;99.90;;;;;;4940106;29;20267;-94
2021/12/16 06:03:44;;;;;;;53.93;28.40;;;7.70;99.90;;;;;;4940042;29;20228;-94
2021/12/16 06:06:10;;;;;;;48.10;27.07;;;7.70;99.90;;;;;;4939782;29;20173;-93
2021/12/16 06:08:36;;;;;;;45.73;25.90;;;7.70;99.90;;;;;;4940466;29;20177;-93
2021/12/16 06:14:14;;;;;;;48.00;27.80;;;7.80;99.90;;;;;;4957315;29;20173;-93
2021/12/16 06:27:41;;;;;;;54.80;27.70;;;7.70;99.90;;;;;;4960857;29;20608;-93
2021/12/16 06:30:11;;;;;;;68.40;30.03;;;7.70;99.90;;;;;;4943254;28;20192;-94
2021/12/16 06:32:37;;;;;;;63.07;30.57;;;7.70;99.90;;;;;;4943394;29;20282;-93
2021/12/16 06:35:05;;;;;;;59.93;31.80;;;7.70;99.90;;;;;;4943920;29;20213;-94
2021/12/16 06:37:30;;;;;;;67.40;32.93;;;7.60;99.90;;;;;;4943491;29;20192;-92
2021/12/16 06:39:56;;;;;;;61.70;31.83;;;7.70;99.90;;;;;;4943771;29;20185;-94
2021/12/16 06:42:24;;;;;;;70.37;31.47;;;7.60;99.90;;;;;;4943863;29;20209;-93
2021/12/16 06:44:55;;;;;;;71.10;33.20;;;7.70;99.90;;;;;;4943395;29;20605;-93
2021/12/16 06:47:29;;;;;;;69.63;32.83;;;7.60;99.90;;;;;;4943158;29;20177;-93
2021/12/16 06:49:55;;;;;;;67.90;31.67;;;7.60;99.90;;;;;;4943370;29;20240;-94
2021/12/16 06:52:32;;;;;;;68.53;33.37;;;7.70;99.90;;;;;;4943101;29;20642;-92
2021/12/16 06:55:14;;;;;;;65.57;32.63;;;7.70;99.90;;;;;;4943398;29;20231;-91
2021/12/16 06:57:50;;;;;;;76.17;34.70;;;7.70;99.90;;;;;;4943055;29;20611;-92
2021/12/16 07:00:29;;;;;;;79.70;35.37;;;7.70;99.90;;;;;;4943131;29;20185;-93
2021/12/16 07:03:04;;;;;;;82.07;36.43;;;7.70;99.90;;;;;;4943398;29;20272;-92
2021/12/16 07:05:41;;;;;;;83.80;35.93;;;7.70;99.90;;;;;;4942935;29;20185;-93
2021/12/16 07:08:13;;;;;;;86.30;38.77;;;7.70;99.90;;;;;;4942927;29;20287;-93
2021/12/16 07:10:40;;;;;;;82.30;36.03;;;7.70;99.90;;;;;;4943101;29;20268;-92
2021/12/16 07:13:15;;;;;;;92.50;38.93;;;7.70;99.90;;;;;;4942970;29;20280;-93
2021/12/16 07:15:41;;;;;;;82.77;37.20;;;7.70;99.90;;;;;;4942606;29;20200;-93
2021/12/16 07:18:07;;;;;;;92.07;39.27;;;7.70;99.90;;;;;;4942214;29;20217;-92
2021/12/16 07:20:35;;;;;;;95.73;39.57;;;7.80;99.90;;;;;;4942935;29;20181;-93
2021/12/16 07:23:03;;;;;;;88.53;38.93;;;7.80;99.90;;;;;;4942493;29;20317;-93
2021/12/16 07:25:29;;;;;;;86.37;38.63;;;7.80;99.90;;;;;;4942451;29;20192;-93
2021/12/16 07:27:55;;;;;;;82.93;36.50;;;7.90;99.90;;;;;;4942393;29;20186;-93
2021/12/16 07:30:23;;;;;;;81.00;37.90;;;7.90;99.90;;;;;;4939788;28;20192;-93
2021/12/16 07:32:50;;;;;;;84.90;38.00;;;7.90;99.90;;;;;;4923371;29;20552;-92
2021/12/16 07:35:20;;;;;;;92.33;40.57;;;7.90;99.90;;;;;;4923896;29;20182;-93
2021/12/16 07:37:46;;;;;;;87.10;39.20;;;8.00;99.90;;;;;;4922363;29;20186;-93
2021/12/16 07:40:15;;;;;;;92.83;40.43;;;8.00;99.90;;;;;;4923507;29;20234;-93
2021/12/16 07:43:26;;;;;;;93.10;40.23;;;8.00;99.90;;;;;;4923600;29;20182;-95
2021/12/16 07:45:31;;;;;;;95.03;40.60;;;8.00;99.90;;;;;;4937157;29;20192;-95
2021/12/16 07:47:57;;;;;;;96.57;40.70;;;8.00;99.90;;;;;;4923101;29;20182;-95
2021/12/16 07:50:24;;;;;;;91.43;40.53;;;8.00;99.90;;;;;;4923076;29;20523;-93
2021/12/16 07:52:50;;;;;;;95.80;42.40;;;8.00;99.90;;;;;;4922957;29;20237;-93
2021/12/16 07:55:18;;;;;;;84.87;39.80;;;8.20;99.90;;;;;;4923642;29;20241;-93
2021/12/16 07:57:43;;;;;;;84.80;39.70;;;8.20;99.90;;;;;;4922766;29;20178;-93
2021/12/16 08:00:17;;;;;;;76.30;39.43;;;8.30;99.90;;;;;;4924202;29;20185;-93
2021/12/16 08:02:43;;;;;;;87.60;39.30;;;8.40;99.90;;;;;;4941819;29;20185;-94
2021/12/16 08:05:10;;;;;;;88.37;41.77;;;8.30;99.90;;;;;;4941907;29;20185;-93
2021/12/16 08:07:37;;;;;;;89.93;42.03;;;8.30;99.90;;;;;;4941964;29;20251;-94
2021/12/16 08:10:06;;;;;;;92.00;39.93;;;8.30;99.90;;;;;;4942147;29;20316;-93
2021/12/16 08:12:33;;;;;;;90.63;40.33;;;8.30;99.90;;;;;;4941745;29;20216;-93
2021/12/16 08:14:59;;;;;;;100.47;43.27;;;8.30;99.90;;;;;;4942160;29;20231;-94
2021/12/16 08:17:25;;;;;;;95.03;43.13;;;8.30;99.90;;;;;;4941307;29;20193;-93
2021/12/16 08:19:51;;;;;;;87.20;41.67;;;8.30;99.90;;;;;;4941293;29;20236;-92
2021/12/16 08:22:16;;;;;;;95.70;42.50;;;8.40;99.90;;;;;;4942011;29;20280;-93
2021/12/16 08:24:42;;;;;;;82.50;40.07;;;8.40;99.90;;;;;;4958748;29;20201;-92
2021/12/16 08:27:09;;;;;;;84.57;41.37;;;8.40;99.90;;;;;;4941771;29;20511;-93
2021/12/16 08:29:35;;;;;;;90.53;41.73;;;8.40;99.90;;;;;;4935917;29;20573;-91
2021/12/16 08:32:00;;;;;;;83.73;41.70;;;8.40;99.90;;;;;;4921327;29;20653;-92
2021/12/16 08:34:29;;;;;;;85.23;41.23;;;8.40;99.90;;;;;;4922377;29;20193;-92
2021/12/16 08:36:55;;;;;;;83.43;41.20;;;8.40;99.90;;;;;;4922072;29;20621;-91
2021/12/16 08:39:23;;;;;;;93.77;42.10;;;8.40;99.90;;;;;;4922152;29;20182;-91
2021/12/16 08:41:50;;;;;;;95.63;42.17;;;8.40;99.90;;;;;;4922134;29;20185;-91
2021/12/16 08:44:17;;;;;;;85.43;40.43;;;8.50;99.90;;;;;;4921857;29;20233;-92
2021/12/16 08:46:47;;;;;;;83.63;41.37;;;8.40;99.90;;;;;;4921913;29;20186;-91
2021/12/16 08:49:14;;;;;;;97.37;43.47;;;8.40;99.90;;;;;;4921292;29;20209;-91
2021/12/16 08:51:45;;;;;;;95.57;41.87;;;8.40;99.90;;;;;;4922012;29;20213;-91
2021/12/16 08:54:12;;;;;;;100.13;42.63;;;8.50;99.90;;;;;;4921917;29;20185;-92
2021/12/16 08:56:39;;;;;;;87.53;41.70;;;8.50;99.90;;;;;;4921633;29;20178;-93
2021/12/16 08:59:07;;;;;;;89.87;42.40;;;8.60;99.90;;;;;;4921660;29;20526;-93
2021/12/16 09:01:38;;;;;;;93.90;42.47;;;8.70;99.90;;;;;;4933114;29;20191;-91
2021/12/16 09:04:05;;;;;;;85.07;40.90;;;8.70;99.90;;;;;;4940635;29;20570;-91
2021/12/16 09:06:32;;;;;;;86.73;41.27;;;8.60;99.90;;;;;;4941012;29;20272;-91
2021/12/16 09:08:59;;;;;;;87.57;43.00;;;8.60;99.90;;;;;;4940599;29;20183;-91
2021/12/16 09:11:27;;;;;;;89.33;41.93;;;8.60;99.90;;;;;;4940175;29;20221;-92
2021/12/16 09:13:57;;;;;;;94.60;42.07;;;8.60;99.90;;;;;;4940334;29;20213;-92
2021/12/16 09:16:26;;;;;;;86.80;40.20;;;8.60;99.90;;;;;;4939139;29;20223;-92
2021/12/16 09:18:52;;;;;;;93.07;42.17;;;8.60;99.90;;;;;;4939842;29;20231;-92
2021/12/16 09:21:28;;;;;;;83.97;39.83;;;8.60;99.90;;;;;;4940659;29;20181;-92
2021/12/16 09:23:55;;;;;;;89.83;40.23;;;8.70;99.90;;;;;;4940455;29;20251;-92
2021/12/16 09:26:22;;;;;;;85.83;40.90;;;8.60;99.90;;;;;;4940496;29;20521;-92
2021/12/16 09:28:49;;;;;;;89.30;40.80;;;8.60;99.90;;;;;;4940671;29;20181;-92
2021/12/16 09:31:18;;;;;;;92.13;42.97;;;8.50;99.90;;;;;;4940190;29;20321;-93
2021/12/16 09:33:48;;;;;;;92.90;42.03;;;8.50;99.90;;;;;;4940337;29;20688;-93
2021/12/16 09:36:16;;;;;;;86.97;38.87;;;8.50;99.90;;;;;;4940092;29;20231;-91
2021/12/16 09:38:43;;;;;;;96.00;41.80;;;8.50;99.90;;;;;;4940172;29;20630;-94
2021/12/16 09:41:09;;;;;;;81.57;39.00;;;8.50;99.90;;;;;;4940159;29;20195;-95
2021/12/16 09:43:41;;;;;;;93.23;39.83;;;8.70;99.90;;;;;;4939947;29;20181;-95
2021/12/16 09:46:11;;;;;;;76.23;37.83;;;8.70;99.90;;;;;;4940641;29;20177;-95
2021/12/16 09:48:38;;;;;;;84.27;38.60;;;8.60;99.90;;;;;;4940245;29;20535;-95
2021/12/16 09:51:08;;;;;;;77.83;38.33;;;8.70;99.90;;;;;;4939904;29;20692;-95
2021/12/16 09:53:36;;;;;;;84.63;39.87;;;8.60;99.90;;;;;;4940013;29;20181;-95
2021/12/16 09:56:04;;;;;;;81.00;37.30;;;8.60;99.90;;;;;;4940117;29;20185;-95
2021/12/16 09:58:34;;;;;;;80.13;38.70;;;8.60;99.90;;;;;;4939941;29;20181;-95
2021/12/16 10:01:04;;;;;;;73.90;36.70;;;8.60;99.90;;;;;;4939944;29;20605;-96
2021/12/16 10:03:29;;;;;;;74.00;35.83;;;8.70;99.90;;;;;;4939611;29;20650;-95
2021/12/16 10:05:56;;;;;;;71.50;36.13;;;8.70;99.90;;;;;;4939711;29;20181;-95
2021/12/16 10:08:22;;;;;;;74.80;35.60;;;8.70;99.90;;;;;;4939915;29;20625;-92
2021/12/16 10:10:48;;;;;;;69.97;33.47;;;8.70;99.90;;;;;;4939886;29;20209;-93
2021/12/16 10:13:21;;;;;;;77.50;34.07;;;8.70;99.90;;;;;;4939899;29;20189;-92
2021/12/16 10:18:21;;;;;;;64.80;33.70;;;8.80;99.90;;;;;;4956448;29;20685;-92
2021/12/16 10:20:54;;;;;;;66.63;33.47;;;8.70;99.90;;;;;;4939851;29;20177;-93
2021/12/16 10:23:24;;;;;;;65.80;33.57;;;8.80;99.90;;;;;;4939949;29;20177;-92
2021/12/16 10:25:58;;;;;;;66.27;32.80;;;8.80;99.90;;;;;;4939595;29;20264;-93
2021/12/16 10:28:30;;;;;;;58.13;30.77;;;8.80;99.90;;;;;;4939651;29;20216;-93
2021/12/16 10:31:12;;;;;;;59.27;29.93;;;8.90;99.90;;;;;;4939557;29;20617;-92
2021/12/16 10:33:43;;;;;;;57.53;30.33;;;8.80;99.90;;;;;;4939679;29;20601;-93
2021/12/16 10:36:20;;;;;;;62.77;29.57;;;8.70;99.90;;;;;;4939648;29;20224;-93
2021/12/16 10:39:03;;;;;;;62.37;30.37;;;8.70;99.90;;;;;;4940092;29;20611;-93
2021/12/16 10:41:55;;;;;;;62.87;30.73;;;8.70;99.90;;;;;;4939706;29;20181;-93
2021/12/16 10:44:29;;;;;;;61.33;30.93;;;8.80;99.90;;;;;;4938929;29;20201;-92
2021/12/16 10:47:02;;;;;;;67.40;31.57;;;8.70;99.90;;;;;;4939321;29;20628;-93
2021/12/16 10:49:35;;;;;;;67.17;29.83;;;8.70;99.90;;;;;;4939598;29;20185;-93
2021/12/16 10:52:06;;;;;;;55.33;29.33;;;8.70;99.90;;;;;;4939384;29;20217;-93
2021/12/16 10:54:39;;;;;;;64.60;28.57;;;8.70;99.90;;;;;;4939852;29;20188;-93
2021/12/16 10:57:14;;;;;;;50.10;27.00;;;8.80;99.90;;;;;;4939501;29;20193;-93
2021/12/16 11:00:08;;;;;;;53.07;26.97;;;8.80;99.90;;;;;;4939246;29;20173;-92
2021/12/16 11:02:37;;;;;;;46.33;26.10;;;8.90;99.90;;;;;;4939379;29;20671;-93
2021/12/16 11:05:05;;;;;;;57.63;27.40;;;8.90;99.90;;;;;;4939562;29;20293;-93
2021/12/16 11:07:35;;;;;;;61.27;25.53;;;8.90;99.90;;;;;;4939249;29;20613;-92
2021/12/16 11:10:18;;;;;;;48.03;24.77;;;8.90;99.90;;;;;;4939248;29;20627;-92
2021/12/16 11:12:49;;;;;;;50.27;26.70;;;9.00;99.90;;;;;;4942025;29;20671;-93
2021/12/16 11:15:18;;;;;;;48.10;24.60;;;8.90;99.90;;;;;;4942900;29;20181;-92
2021/12/16 11:17:52;;;;;;;47.37;24.73;;;8.90;99.90;;;;;;4942181;29;20185;-93
2021/12/16 11:20:24;;;;;;;47.00;25.67;;;8.90;99.90;;;;;;4942054;29;20555;-93
2021/12/16 11:22:53;;;;;;;48.07;24.23;;;9.00;99.90;;;;;;4942694;29;20177;-92
2021/12/16 11:25:24;;;;;;;43.78;24.35;;;8.90;99.90;;;;;;4942479;29;20185;-92
2021/12/16 11:27:55;;;;;;;44.53;23.37;;;8.90;99.90;;;;;;4942239;29;20187;-93
2021/12/16 11:30:36;;;;;;;42.63;23.43;;;9.00;99.90;;;;;;4942790;29;20175;-93
2021/12/16 11:33:26;;;;;;;48.35;23.15;;;9.00;99.90;;;;;;4942200;29;20221;-93
2021/12/16 11:35:56;;;;;;;39.70;21.47;;;9.00;99.90;;;;;;4942215;29;20170;-92
2021/12/16 11:38:24;;;;;;;37.93;20.60;;;9.00;99.90;;;;;;4942328;29;20185;-93
2021/12/16 11:40:55;;;;;;;41.28;20.65;;;9.00;99.90;;;;;;4942612;29;20225;-92
2021/12/16 11:43:41;;;;;;;38.13;19.67;;;9.00;99.90;;;;;;4942772;29;20177;-92
2021/12/16 11:46:15;;;;;;;34.53;20.38;;;9.00;99.90;;;;;;4942346;29;20609;-93
2021/12/16 11:48:40;;;;;;;31.63;18.50;;;9.00;99.90;;;;;;4942645;29;20174;-93
2021/12/16 11:51:23;;;;;;;33.00;18.17;;;9.10;99.90;;;;;;4942595;29;20177;-92
2021/12/16 11:53:54;;;;;;;33.30;17.50;;;9.10;99.90;;;;;;4941997;29;20201;-93
2021/12/16 11:56:32;;;;;;;31.45;15.98;;;9.10;99.90;;;;;;4941625;29;20674;-93
2021/12/16 11:58:59;;;;;;;26.38;15.57;;;9.10;99.90;;;;;;4942491;29;20195;-94
2021/12/16 12:01:26;;;;;;;27.52;15.95;;;9.20;99.90;;;;;;4941869;29;20604;-93
2021/12/16 12:03:59;;;;;;;32.47;16.77;;;9.20;99.90;;;;;;4941805;29;20215;-93
2021/12/16 12:06:28;;;;;;;29.77;17.17;;;9.10;99.90;;;;;;4941581;29;20170;-92
2021/12/16 12:08:55;;;;;;;33.70;15.83;;;9.10;99.90;;;;;;4941763;29;20319;-93
2021/12/16 12:11:24;;;;;;;34.30;17.23;;;9.10;99.90;;;;;;4941750;29;20205;-94
2021/12/16 12:13:59;;;;;;;30.13;16.13;;;9.10;99.90;;;;;;4937241;29;20578;-93
2021/12/16 12:16:35;;;;;;;28.70;15.70;;;9.10;99.90;;;;;;4921784;29;20488;-93
2021/12/16 12:19:07;;;;;;;27.93;15.47;;;9.10;99.90;;;;;;4927094;29;20232;-93
2021/12/16 12:21:36;;;;;;;28.23;16.13;;;9.00;99.90;;;;;;4940561;29;20200;-92
2021/12/16 12:24:07;;;;;;;26.10;15.03;;;9.00;99.90;;;;;;4941139;29;20177;-92
2021/12/16 12:26:37;;;;;;;24.47;14.40;;;9.10;99.90;;;;;;4941126;29;20174;-92
2021/12/16 12:29:08;;;;;;;27.23;13.98;;;9.10;99.90;;;;;;4941460;29;20182;-92
2021/12/16 12:31:37;;;;;;;27.53;13.83;;;9.10;99.90;;;;;;4940406;29;20201;-92
2021/12/16 12:34:04;;;;;;;20.53;12.00;;;9.10;99.90;;;;;;4941090;29;20196;-93
2021/12/16 12:36:33;;;;;;;19.47;11.40;;;9.20;99.90;;;;;;4941490;29;20827;-92
2021/12/16 12:39:02;;;;;;;18.43;11.10;;;9.20;99.90;;;;;;4941329;29;20201;-92
2021/12/16 12:41:28;;;;;;;19.90;11.50;;;9.20;99.90;;;;;;4940932;29;20184;-92
2021/12/16 12:43:56;;;;;;;18.80;11.70;;;9.20;99.90;;;;;;4941668;29;20181;-92
2021/12/16 12:46:23;;;;;;;19.03;10.57;;;9.20;99.90;;;;;;4940542;29;20398;-91
2021/12/16 12:48:49;;;;;;;23.70;11.23;;;9.20;99.90;;;;;;4941299;29;20185;-91
2021/12/16 12:51:15;;;;;;;19.47;11.23;;;9.20;99.90;;;;;;4940760;29;20292;-93
2021/12/16 12:53:51;;;;;;;18.40;10.50;;;9.20;99.90;;;;;;4940918;29;20505;-92
2021/12/16 12:56:21;;;;;;;19.27;10.87;;;9.20;99.90;;;;;;4940544;29;20609;-92
2021/12/16 12:58:51;;;;;;;19.37;10.43;;;9.30;99.90;;;;;;4940926;29;20221;-92
2021/12/16 13:01:17;;;;;;;18.37;10.17;;;9.20;99.90;;;;;;4937777;29;20190;-92
2021/12/16 13:03:42;;;;;;;21.97;12.67;;;9.20;99.90;;;;;;4921637;29;20526;-91
2021/12/16 13:06:15;;;;;;;19.13;10.75;;;9.20;99.90;;;;;;4921915;29;20569;-93
2021/12/16 13:08:45;;;;;;;19.00;11.27;;;9.20;99.90;;;;;;4922162;29;20220;-92
2021/12/16 13:11:13;;;;;;;17.20;10.27;;;9.20;99.90;;;;;;4938717;29;20186;-92
2021/12/16 13:28:53;;;;;;;15.90;9.40;;;9.20;99.90;;;;;;4957525;29;20223;-92
2021/12/16 13:31:27;;;;;;;17.57;10.17;;;9.30;99.90;;;;;;4956913;29;20216;-93
2021/12/16 13:33:56;;;;;;;15.90;9.50;;;9.30;99.90;;;;;;4939498;29;20181;-93
2021/12/16 13:36:48;;;;;;;17.45;10.18;;;9.20;99.90;;;;;;4940275;29;20181;-93
2021/12/16 13:39:19;;;;;;;17.88;9.98;;;9.20;99.90;;;;;;4940413;29;20174;-92
2021/12/16 13:41:57;;;;;;;18.37;10.93;;;9.30;99.90;;;;;;4940124;29;20177;-92
2021/12/16 13:44:52;;;;;;;16.43;10.67;;;9.20;99.90;;;;;;4940013;29;20177;-92
2021/12/16 14:02:26;;;;;;;20.25;10.25;;;9.00;99.90;;;;;;4957201;29;20169;-93
2021/12/16 14:05:22;;;;;;;16.38;10.18;;;8.90;99.90;;;;;;4956447;29;20189;-93
2021/12/16 14:08:06;;;;;;;16.33;10.23;;;8.80;99.90;;;;;;4939971;29;20650;-93
2021/12/16 14:10:42;;;;;;;16.60;10.27;;;8.80;99.90;;;;;;4939871;29;20203;-94
2021/12/16 14:16:57;;;;;;;13.65;9.20;;;8.80;99.90;;;;;;4957012;29;20176;-94
2021/12/16 14:36:28;;;;;;;15.60;8.95;;;8.90;99.90;;;;;;4956630;29;20173;-95
2021/12/16 14:41:39;;;;;;;16.98;9.38;;;9.00;99.90;;;;;;4956587;29;20181;-95
2021/12/16 14:47:12;;;;;;;12.77;8.37;;;8.90;99.90;;;;;;4953751;28;20165;-94
2021/12/16 14:49:45;;;;;;;13.23;8.63;;;8.90;99.90;;;;;;4940519;29;20492;-94
2021/12/16 14:52:19;;;;;;;14.67;8.47;;;8.90;99.90;;;;;;4941599;29;20231;-95
2021/12/16 14:55:09;;;;;;;11.17;8.07;;;8.90;99.90;;;;;;4940723;29;20203;-95
2021/12/16 14:57:44;;;;;;;12.48;7.47;;;8.90;99.90;;;;;;4941507;29;20204;-96
2021/12/16 15:00:13;;;;;;;13.05;7.38;;;8.80;99.90;;;;;;4940442;29;20205;-95
2021/12/16 15:02:41;;;;;;;13.73;7.93;;;8.80;99.90;;;;;;4943178;29;20211;-95
2021/12/16 15:05:43;;;;;;;13.40;7.80;;;8.80;99.90;;;;;;4943160;29;20691;-95
2021/12/16 15:08:40;;;;;;;15.30;8.82;;;8.70;99.90;;;;;;4943043;29;20520;-94
2021/12/16 15:11:10;;;;;;;13.27;8.00;;;8.80;99.90;;;;;;4942913;29;20188;-95
2021/12/16 15:34:45;;;;;;;9.87;6.40;;;8.60;99.90;;;;;;4959613;29;20208;-94
2021/12/16 15:36:31;;;;;;;10.00;6.78;;;8.60;99.90;;;;;;4958982;29;20184;-95
2021/12/16 15:38:59;;;;;;;9.33;6.40;;;8.60;99.90;;;;;;4959608;29;20185;-94
2021/12/16 15:44:11;;;;;;;8.97;5.57;;;8.60;99.90;;;;;;4959687;29;20201;-94
2021/12/16 15:46:39;;;;;;;8.47;5.10;;;8.60;99.90;;;;;;4942054;29;20499;-94
2021/12/16 15:49:05;;;;;;;7.47;4.57;;;8.60;99.90;;;;;;4942329;29;20186;-93
2021/12/16 15:51:31;;;;;;;8.03;4.50;;;8.60;99.90;;;;;;4942702;29;20212;-96
2021/12/16 15:53:59;;;;;;;5.60;4.03;;;8.50;99.90;;;;;;4943374;29;20185;-96
2021/12/16 15:56:38;;;;;;;6.90;4.63;;;8.50;99.90;;;;;;4942439;29;20750;-95
2021/12/16 15:59:12;;;;;;;6.87;4.00;;;8.40;99.90;;;;;;4943291;29;20608;-96
2021/12/16 16:01:58;;;;;;;6.63;4.30;;;8.40;99.90;;;;;;4942036;29;20185;-95
2021/12/16 16:04:35;;;;;;;6.13;4.20;;;8.30;99.90;;;;;;4942148;29;20239;-96
2021/12/16 16:07:11;;;;;;;5.57;3.93;;;8.30;99.90;;;;;;4943009;29;20180;-96
2021/12/16 16:09:49;;;;;;;5.90;4.33;;;8.30;99.90;;;;;;4942134;29;20181;-95
